CheckWX is a tool to help pilots better visualize weather data.  It is not intended as a substitute for an official pre-flight weather briefing.

18:27:01 UTC

KCDH METAR
Harrell Field Airport
Camden, Arkansas, USA
Current

32 mins ago

KCDH 161755Z AUTO 19003KT 3SM HZ OVC013 14/10 A3008 RMK AO2
Observed
Feb-16 @ 17:55 UTC
Wind
  • 190° at 3 KTS
Visibility
3 SM
Flight Rules
MVFR
Conditions
Haze
Cloud Levels
  • Overcast at 1,300' AGL
Temperature
14°C / 57°F
Dewpoint
10°C / 50°F
Humidity
77%
Altimeter
30.08" Hg
Pressure
1018.62 hPa
Previous

52 mins ago

KCDH 161735Z AUTO 00000KT 3SM HZ OVC012 14/09 A3009 RMK AO2
Observed
Feb-16 @ 17:35 UTC
Visibility
3 SM
Flight Rules
MVFR
Conditions
Haze
Cloud Levels
  • Overcast at 1,200' AGL
Temperature
14°C / 57°F
Dewpoint
C / 48°F
Humidity
72%
Altimeter
30.09" Hg
Pressure
1018.92 hPa
Previous

1 hour ago

KCDH 161715Z AUTO 00000KT 3SM HZ OVC012 14/09 A3010 RMK AO2
Observed
Feb-16 @ 17:15 UTC
Visibility
3 SM
Flight Rules
MVFR
Conditions
Haze
Cloud Levels
  • Overcast at 1,200' AGL
Temperature
14°C / 57°F
Dewpoint
C / 48°F
Humidity
72%
Altimeter
30.1" Hg
Pressure
1019.32 hPa